Terminal Aerodrome Forecast
Issued by NWS Charleston, WV

Current Version | Previous Version | Graphics & Text | Print | Product List | Glossary On
Versions: 1 2 3 4 5 6 7 8 9 10 11 12 13 14 15 16 17 18 19 20 21 22 23 24
000
FTUS41 KRLX 181700
TAFCRW
TAF
KCRW 181738Z 1818/1918 VRB03KT P6SM BKN025 BKN090
     FM182100 VRB03KT P6SM SCT025 OVC080
     FM190700 VRB03KT P6SM -SHSN BKN025
     FM191700 VRB03KT P6SM SCT025=

USA.gov is the U.S. government's official web portal to all federal, state and local government web resources and services.